Time;durP1;ratioP1;P1;durP2;ratioP2;P2;SDS_P1;SDS_P2;PMS_P1;PMS_P2;Temp;Humidity;BMP_temperature;BMP_pressure;BME280_temperature;BME280_humidity;BME280_pressure;Samples;Min_cycle;Max_cycle;Signal;HPM_P1;HPM_P2
2022/06/16 00:00:33;;;;;;;3.87;2.43;;;18.50;57.10;;;21.27;44.61;101909.03;5095596;27;20550;-60
2022/06/16 00:03:05;;;;;;;3.07;1.80;;;18.50;57.40;;;21.28;43.95;101910.66;5094285;28;20280;-60
2022/06/16 00:05:35;;;;;;;9.83;2.80;;;18.50;57.20;;;21.30;43.93;101903.22;5094108;28;20200;-60
2022/06/16 00:08:06;;;;;;;2.27;1.83;;;18.60;57.30;;;21.36;43.90;101901.53;5094385;28;20193;-58
2022/06/16 00:10:34;;;;;;;3.27;1.70;;;18.60;57.20;;;21.41;44.34;101909.75;5112384;28;20198;-59
2022/06/16 00:13:02;;;;;;;6.87;2.37;;;18.60;57.10;;;21.48;43.89;101915.88;5113990;28;20265;-58
2022/06/16 00:15:32;;;;;;;3.83;1.90;;;18.70;57.30;;;21.53;44.34;101916.06;5114085;28;20188;-59
2022/06/16 00:18:01;;;;;;;3.00;2.07;;;18.70;57.20;;;21.55;44.13;101916.66;5114058;28;20195;-58
2022/06/16 00:20:29;;;;;;;3.77;1.80;;;18.80;57.40;;;21.55;44.04;101901.41;5098274;28;20201;-60
2022/06/16 00:22:56;;;;;;;2.63;1.60;;;18.70;57.40;;;21.54;43.86;101905.13;5096270;28;20188;-60
2022/06/16 00:25:23;;;;;;;3.00;1.80;;;18.70;57.30;;;21.53;44.34;101898.13;5095981;28;20212;-60
2022/06/16 00:27:51;;;;;;;2.33;1.90;;;18.70;57.40;;;21.54;43.82;101894.41;5096660;28;20191;-61
2022/06/16 00:30:19;;;;;;;3.87;1.73;;;18.70;57.50;;;21.53;44.42;101900.81;5111455;28;20197;-60
2022/06/16 00:32:46;;;;;;;2.70;1.80;;;18.70;57.70;;;21.50;44.10;101893.19;5113832;28;20207;-60
2022/06/16 00:35:15;;;;;;;3.90;1.87;;;18.60;57.80;;;21.45;44.30;101885.00;5113885;28;20188;-60
2022/06/16 00:37:43;;;;;;;2.50;1.70;;;18.60;57.80;;;21.41;44.46;101881.13;5114118;28;20199;-61
2022/06/16 00:40:12;;;;;;;2.97;1.50;;;18.60;57.90;;;21.39;44.97;101890.41;5098133;28;20196;-61
2022/06/16 00:42:39;;;;;;;4.00;1.77;;;18.60;58.70;;;21.37;44.93;101881.78;5093077;28;20226;-62
2022/06/16 00:45:44;;;;;;;4.43;2.00;;;18.50;58.30;;;21.23;44.78;101894.41;5093468;28;20195;-60
2022/06/16 00:48:17;;;;;;;5.43;1.80;;;18.50;58.30;;;21.22;45.12;101894.63;5093417;28;20181;-61
2022/06/16 00:50:50;;;;;;;2.57;1.50;;;18.50;58.30;;;21.20;45.38;101891.38;5112484;28;20697;-61
2022/06/16 00:53:18;;;;;;;3.87;1.67;;;18.40;58.50;;;21.22;45.50;101879.41;5113941;28;20279;-61
2022/06/16 00:55:47;;;;;;;3.83;1.80;;;18.50;58.60;;;21.26;45.31;101885.94;5113557;28;20212;-61
2022/06/16 00:58:15;;;;;;;2.47;1.70;;;18.50;58.80;;;21.28;44.96;101883.88;5113286;28;20559;-61
2022/06/16 01:00:45;;;;;;;2.27;1.70;;;18.50;58.70;;;21.32;45.23;101879.72;5093163;28;20189;-61
2022/06/16 01:04:51;;;;;;;5.47;1.90;;;18.50;58.60;;;21.33;44.75;101889.41;5093044;28;20184;-61
2022/06/16 01:06:19;;;;;;;3.20;1.50;;;18.50;58.60;;;21.25;44.79;101880.81;5093109;28;20199;-62
2022/06/16 01:08:51;;;;;;;2.20;1.83;;;18.50;58.80;;;21.25;45.52;101878.16;5095540;28;20217;-63
2022/06/16 01:14:35;;;;;;;2.37;1.80;;;18.40;59.10;;;21.09;45.53;101866.06;5113838;28;20560;-62
2022/06/16 01:17:17;;;;;;;4.00;1.73;;;18.30;59.30;;;21.05;46.05;101866.72;5113635;28;20196;-60
2022/06/16 01:20:08;;;;;;;3.53;2.00;;;18.30;59.50;;;20.98;46.22;101866.75;5106585;28;20203;-61
2022/06/16 01:23:45;;;;;;;3.47;1.90;;;18.20;59.50;;;20.91;45.92;101866.78;5099898;28;20220;-60
2022/06/16 01:27:05;;;;;;;3.70;1.80;;;18.20;59.70;;;20.82;46.39;101872.59;5097018;28;20193;-61
2022/06/16 01:29:47;;;;;;;2.23;1.53;;;18.10;59.90;;;20.78;46.34;101871.38;5105474;28;20183;-61
2022/06/16 01:32:26;;;;;;;3.70;1.73;;;18.00;60.00;;;20.78;46.35;101876.72;5116360;28;20272;-60
2022/06/16 01:35:08;;;;;;;1.90;1.70;;;18.10;61.00;;;20.82;46.41;101867.25;5117076;28;20222;-60
2022/06/16 01:37:50;;;;;;;4.90;1.97;;;18.10;60.20;;;20.83;46.58;101868.88;5117123;28;20546;-61
2022/06/16 01:40:28;;;;;;;3.37;1.73;;;18.10;60.20;;;20.83;46.56;101861.69;5101587;28;20677;-62
2022/06/16 01:43:15;;;;;;;4.70;1.63;;;18.10;60.30;;;20.80;46.54;101863.97;5096422;28;20209;-61
2022/06/16 01:45:56;;;;;;;2.67;1.43;;;18.10;60.40;;;20.82;46.41;101861.91;5096644;28;20208;-61
2022/06/16 01:48:27;;;;;;;2.30;1.87;;;18.10;60.40;;;20.84;46.96;101857.16;5097550;28;20271;-63
2022/06/16 01:50:59;;;;;;;4.20;1.80;;;18.10;60.50;;;20.85;46.95;101850.75;5115707;28;20220;-61
2022/06/16 01:53:36;;;;;;;1.50;1.40;;;18.10;61.30;;;20.86;46.62;101850.53;5117423;28;20550;-62
2022/06/16 01:56:16;;;;;;;2.53;1.60;;;18.10;60.30;;;20.89;46.32;101851.97;5117606;28;20189;-59
2022/06/16 01:58:51;;;;;;;2.73;1.60;;;18.10;60.40;;;20.92;46.73;101846.16;5116232;28;20184;-61
2022/06/16 02:01:26;;;;;;;3.17;1.93;;;18.20;60.30;;;20.96;46.88;101854.59;5106139;28;20223;-61
2022/06/16 02:04:02;;;;;;;1.60;1.50;;;18.20;60.20;;;20.96;46.64;101844.72;5116719;28;20211;-60
2022/06/16 02:06:36;;;;;;;2.13;1.77;;;18.20;60.20;;;20.96;46.27;101862.63;5116413;28;20270;-61
2022/06/16 02:09:11;;;;;;;3.80;1.83;;;18.20;60.10;;;20.92;46.09;101856.88;5111060;28;20187;-61
2022/06/16 02:11:42;;;;;;;4.27;2.13;;;18.20;60.30;;;20.86;46.58;101853.22;5095949;28;20287;-61
2022/06/16 02:14:19;;;;;;;4.23;1.93;;;18.10;61.30;;;20.74;47.10;101849.59;5100427;28;20188;-61
2022/06/16 02:16:51;;;;;;;2.50;2.00;;;18.00;60.70;;;20.68;47.26;101854.97;5104267;28;20199;-61
2022/06/16 02:19:23;;;;;;;2.10;1.90;;;17.90;61.00;;;20.63;47.04;101857.47;5105545;28;20190;-61
2022/06/16 02:21:53;;;;;;;3.83;2.23;;;17.90;61.20;;;20.56;47.37;101857.47;5119425;28;20706;-61
2022/06/16 02:24:24;;;;;;;4.03;2.73;;;17.80;61.40;;;20.50;47.81;101863.69;5117688;28;20263;-61
2022/06/16 02:26:57;;;;;;;3.80;1.73;;;17.70;61.80;;;20.44;47.78;101874.41;5116203;28;20196;-62
2022/06/16 02:29:29;;;;;;;4.63;2.30;;;17.70;62.00;;;20.38;48.21;101881.41;5075341;28;20192;-61
2022/06/16 02:32:24;;;;;;;4.53;2.50;;;17.60;62.40;;;20.27;48.23;101879.41;5074992;28;20213;-62
2022/06/16 02:35:08;;;;;;;4.07;2.07;;;17.50;62.70;;;20.21;48.62;101864.97;5075211;28;20193;-61
2022/06/16 02:38:04;;;;;;;2.97;2.13;;;17.50;62.80;;;20.17;48.29;101866.44;5081122;28;20197;-61
2022/06/16 02:40:55;;;;;;;4.13;1.93;;;17.40;62.90;;;20.16;48.58;101871.97;5095324;28;20193;-61
2022/06/16 02:43:47;;;;;;;4.23;2.17;;;17.40;63.10;;;20.15;48.79;101889.91;5095680;28;20268;-60
2022/06/16 02:46:31;;;;;;;7.67;2.47;;;17.40;63.30;;;20.15;48.76;101892.56;5095540;28;20196;-61
2022/06/16 02:49:20;;;;;;;3.73;2.10;;;17.40;63.30;;;20.08;48.54;101893.59;5112435;28;20244;-62
2022/06/16 02:52:05;;;;;;;5.33;2.90;;;17.30;63.40;;;20.04;49.16;101890.50;5116662;28;20756;-61
2022/06/16 02:54:44;;;;;;;3.80;2.70;;;17.30;64.50;;;20.03;49.10;101891.56;5118247;28;20665;-62
2022/06/16 02:57:22;;;;;;;5.10;2.60;;;17.30;63.70;;;19.98;49.22;101899.38;5115832;28;20198;-62
2022/06/16 02:59:55;;;;;;;2.80;2.37;;;17.20;63.80;;;19.91;49.28;101909.25;5096922;28;20192;-60
2022/06/16 03:02:25;;;;;;;4.33;2.53;;;17.20;64.10;;;19.87;49.16;101916.03;5094959;28;20231;-60
2022/06/16 03:04:58;;;;;;;5.83;2.63;;;17.10;64.30;;;19.81;49.40;101913.34;5095746;28;20180;-61
2022/06/16 03:07:27;;;;;;;5.90;2.83;;;17.10;64.60;;;19.78;49.55;101914.59;5098075;28;20670;-61
2022/06/16 03:09:54;;;;;;;3.93;2.80;;;17.00;64.80;;;19.76;49.75;101913.97;5115331;28;20203;-60
2022/06/16 03:12:21;;;;;;;3.50;3.13;;;17.00;65.00;;;19.77;49.67;101899.59;5115037;28;20286;-61
2022/06/16 03:14:49;;;;;;;7.10;4.10;;;17.00;65.10;;;19.77;49.67;101910.28;5116137;28;20547;-62
2022/06/16 03:17:17;;;;;;;3.83;2.70;;;17.00;65.30;;;19.77;49.96;101912.97;5114043;28;20587;-62
2022/06/16 03:19:44;;;;;;;3.10;2.47;;;16.90;65.20;;;19.76;49.82;101915.81;5095558;28;20189;-62
2022/06/16 03:22:13;;;;;;;4.97;2.53;;;16.90;65.20;;;19.74;49.88;101921.38;5095145;28;20220;-62
2022/06/16 03:24:41;;;;;;;2.43;2.20;;;16.90;65.10;;;19.72;50.02;101918.09;5094855;28;20188;-61
2022/06/16 03:27:11;;;;;;;4.23;1.93;;;16.90;65.30;;;19.74;49.99;101910.69;5094580;28;20195;-59
2022/06/16 03:29:39;;;;;;;3.50;2.50;;;16.90;65.10;;;19.78;49.65;101924.47;5114791;28;20342;-61
2022/06/16 03:32:07;;;;;;;3.07;2.30;;;17.00;65.80;;;19.80;49.72;101925.91;5114520;28;20208;-62
2022/06/16 03:34:35;;;;;;;2.73;2.23;;;16.90;64.90;;;19.79;49.49;101928.78;5114911;28;20204;-62
2022/06/16 03:37:03;;;;;;;4.30;3.00;;;16.90;64.90;;;19.78;49.36;101933.31;5113441;28;20268;-61
2022/06/16 03:39:32;;;;;;;3.30;2.40;;;16.90;64.80;;;19.80;49.31;101931.25;5113807;28;20274;-63
2022/06/16 03:41:59;;;;;;;6.23;2.97;;;17.00;64.80;;;19.82;49.60;101928.38;5113688;28;20219;-62
2022/06/16 03:44:27;;;;;;;4.37;2.43;;;17.00;64.70;;;19.83;49.55;101933.50;5114974;28;20676;-61
2022/06/16 03:46:54;;;;;;;3.00;2.23;;;17.00;64.70;;;19.81;49.02;101930.22;5114945;28;20187;-61
2022/06/16 03:49:22;;;;;;;4.10;2.60;;;16.90;64.80;;;19.80;49.37;101939.25;5095755;28;20196;-60
2022/06/16 03:51:49;;;;;;;4.80;2.20;;;16.90;64.80;;;19.77;49.37;101947.69;5094646;28;20208;-59
2022/06/16 03:54:16;;;;;;;2.40;2.20;;;16.90;64.90;;;19.75;49.62;101944.41;5094895;28;20275;-62
2022/06/16 03:56:45;;;;;;;3.80;2.33;;;16.90;65.00;;;19.73;49.83;101940.31;5094717;28;20272;-62
2022/06/16 03:59:12;;;;;;;4.07;2.90;;;16.90;65.40;;;19.74;49.56;101941.94;5111033;28;20200;-62
2022/06/16 04:01:40;;;;;;;4.37;2.63;;;16.90;65.10;;;19.76;49.76;101940.69;5114398;28;20216;-62
2022/06/16 04:04:08;;;;;;;3.10;2.80;;;16.90;65.20;;;19.80;49.45;101936.59;5114543;28;20274;-62
2022/06/16 04:06:36;;;;;;;7.20;2.23;;;17.00;65.20;;;19.85;49.65;101942.13;5114885;28;20188;-62
2022/06/16 04:09:05;;;;;;;4.20;2.33;;;17.00;65.10;;;19.87;49.59;101942.75;5099840;28;20188;-61
2022/06/16 04:11:32;;;;;;;3.03;2.30;;;17.00;65.00;;;19.88;49.63;101939.06;5094122;28;20270;-61
2022/06/16 04:14:07;;;;;;;3.60;2.00;;;17.00;64.80;;;19.92;49.22;101940.28;5094649;28;20199;-62
2022/06/16 04:16:39;;;;;;;5.33;2.57;;;17.10;64.90;;;19.93;49.33;101939.28;5094287;28;20673;-61
2022/06/16 04:19:09;;;;;;;4.23;2.87;;;17.10;64.80;;;19.96;49.36;101946.06;5094781;28;20224;-61
2022/06/16 04:21:38;;;;;;;5.00;2.60;;;17.10;64.80;;;19.98;49.59;101947.50;5093504;28;20235;-62
2022/06/16 04:24:09;;;;;;;3.53;2.03;;;17.10;64.80;;;20.03;49.19;101944.19;5093997;28;20189;-61
2022/06/16 04:26:38;;;;;;;5.17;2.77;;;17.20;64.90;;;20.12;49.34;101945.63;5093957;28;20188;-61
2022/06/16 04:29:10;;;;;;;2.50;2.20;;;17.20;64.70;;;20.20;48.78;101951.59;5109575;28;20218;-62
2022/06/16 04:31:39;;;;;;;3.63;2.30;;;17.30;64.60;;;20.28;48.73;101955.13;5114876;28;20218;-62
2022/06/16 04:34:09;;;;;;;2.70;2.47;;;17.30;64.50;;;20.37;48.44;101962.72;5114545;28;20766;-62
2022/06/16 04:36:36;;;;;;;3.60;2.70;;;17.40;64.40;;;20.42;48.83;101959.41;5115491;28;20183;-61
2022/06/16 04:39:04;;;;;;;5.77;2.47;;;17.50;64.20;;;20.46;48.30;101965.97;5098983;28;20274;-61
2022/06/16 04:41:33;;;;;;;5.90;2.57;;;17.50;64.10;;;20.49;48.57;101968.25;5113040;28;20294;-62
2022/06/16 04:44:01;;;;;;;2.30;2.10;;;17.50;63.90;;;20.55;48.65;101975.41;5114174;28;20187;-62
2022/06/16 04:46:32;;;;;;;2.83;2.00;;;17.60;63.80;;;20.62;48.19;101973.53;5113620;28;20199;-61
2022/06/16 04:49:01;;;;;;;4.40;2.10;;;17.60;63.70;;;20.69;48.38;101985.06;5099981;28;20219;-61
2022/06/16 04:51:28;;;;;;;2.90;2.30;;;17.70;63.50;;;20.77;48.07;101977.63;5092345;28;20232;-61
2022/06/16 04:53:56;;;;;;;5.40;2.70;;;17.80;63.30;;;20.88;47.53;101989.53;5096529;28;20189;-61
2022/06/16 04:56:24;;;;;;;8.07;4.33;;;17.90;63.90;;;20.98;47.36;101989.06;5098174;28;20269;-62
2022/06/16 04:58:51;;;;;;;5.57;3.33;;;18.00;63.00;;;21.04;47.59;101989.03;5110235;28;20278;-62
2022/06/16 05:01:19;;;;;;;5.70;2.60;;;18.10;62.80;;;21.10;47.52;101988.25;5118031;28;20331;-62
2022/06/16 05:03:50;;;;;;;4.80;2.50;;;18.10;62.40;;;21.13;47.13;101990.50;5118431;28;20216;-62
2022/06/16 05:06:18;;;;;;;5.93;3.13;;;18.20;62.40;;;21.19;47.40;101991.47;5118329;28;20184;-62
2022/06/16 05:08:45;;;;;;;5.33;3.10;;;18.20;62.30;;;21.21;46.90;101984.88;5106222;28;20280;-61
2022/06/16 05:11:13;;;;;;;6.63;3.63;;;18.30;62.20;;;21.22;47.24;101983.84;5096834;28;20612;-61
2022/06/16 05:13:40;;;;;;;5.80;3.73;;;18.30;62.10;;;21.23;46.83;101987.31;5130254;27;20296;-61
2022/06/16 05:16:08;;;;;;;2.47;2.27;;;18.30;62.00;;;21.23;47.02;101990.84;5096988;28;20199;-63
2022/06/16 05:18:35;;;;;;;5.83;3.03;;;18.30;61.80;;;21.22;46.98;101978.50;5106484;28;20188;-62
2022/06/16 05:21:07;;;;;;;4.70;3.30;;;18.30;61.90;;;21.19;46.93;101986.94;5117313;28;20211;-62
2022/06/16 05:23:35;;;;;;;2.43;2.20;;;18.30;61.90;;;21.19;46.68;101994.16;5117800;28;20215;-63
2022/06/16 05:26:04;;;;;;;2.00;1.73;;;18.30;62.00;;;21.19;46.87;101994.97;5118125;28;20180;-62
2022/06/16 05:28:32;;;;;;;6.17;2.83;;;18.30;61.90;;;21.23;46.61;101998.03;5107833;28;20207;-62
2022/06/16 05:31:00;;;;;;;3.53;2.47;;;18.30;61.70;;;21.24;46.63;101995.16;5096706;28;20211;-62
2022/06/16 05:33:27;;;;;;;4.83;2.30;;;18.40;61.60;;;21.26;46.92;101992.28;5096589;28;20193;-61
2022/06/16 05:35:57;;;;;;;4.57;1.83;;;18.40;61.50;;;21.26;46.57;101990.41;5096780;28;20192;-61
2022/06/16 05:38:26;;;;;;;3.87;2.20;;;18.40;61.40;;;21.29;46.97;101995.34;5104879;28;20226;-63
2022/06/16 05:40:58;;;;;;;5.67;3.17;;;18.50;61.40;;;21.32;46.54;101996.78;5117298;28;20657;-61
2022/06/16 05:43:26;;;;;;;2.20;1.87;;;18.50;61.40;;;21.34;46.48;102006.25;5117807;28;20771;-62
2022/06/16 05:45:53;;;;;;;5.47;2.77;;;18.50;61.40;;;21.37;46.55;102005.00;5118783;28;20632;-62
2022/06/16 05:48:21;;;;;;;3.60;2.20;;;18.50;61.50;;;21.38;46.60;102006.63;5117131;28;20629;-61
2022/06/16 05:50:49;;;;;;;6.73;2.80;;;18.50;62.40;;;21.38;46.98;102012.81;5117916;28;20215;-62
2022/06/16 05:53:16;;;;;;;5.77;2.47;;;18.50;61.50;;;21.34;46.80;102019.66;5117541;28;20277;-61
2022/06/16 05:55:46;;;;;;;5.00;3.23;;;18.50;61.50;;;21.28;46.98;102017.81;5116734;28;20195;-62
2022/06/16 05:58:13;;;;;;;3.63;3.33;;;18.40;61.60;;;21.25;46.66;102002.16;5110436;28;20634;-62
2022/06/16 06:00:40;;;;;;;4.90;2.30;;;18.40;61.60;;;21.28;46.48;102014.31;5095799;28;20193;-61
2022/06/16 06:03:11;;;;;;;3.47;1.90;;;18.40;61.60;;;21.30;46.45;102015.72;5095546;28;20311;-61
2022/06/16 06:05:40;;;;;;;3.40;2.13;;;18.40;61.60;;;21.36;46.81;102014.91;5095209;28;20267;-61
2022/06/16 06:16:37;;;;;;;3.30;2.43;;;18.60;60.60;;;21.45;45.83;102016.28;5116186;28;20184;-60
2022/06/16 06:19:23;;;;;;;2.00;1.83;;;18.70;60.60;;;21.55;46.00;102019.31;5102287;28;20212;-61
2022/06/16 06:21:58;;;;;;;2.47;2.10;;;18.70;60.20;;;21.62;46.00;102019.28;5095265;28;20662;-61
2022/06/16 06:24:28;;;;;;;2.97;1.90;;;18.80;59.90;;;21.69;45.34;102019.22;5093411;28;20390;-62
2022/06/16 06:27:01;;;;;;;3.20;1.90;;;18.90;59.80;;;21.79;45.63;102024.94;5095599;28;20196;-62
2022/06/16 06:29:28;;;;;;;2.27;1.90;;;18.90;59.80;;;21.89;45.55;102026.16;5096044;28;20192;-62
2022/06/16 06:31:57;;;;;;;2.03;1.73;;;19.00;59.70;;;21.99;44.85;102025.63;5094873;28;20219;-60
2022/06/16 06:34:24;;;;;;;3.83;1.87;;;19.10;59.40;;;22.08;44.92;102021.66;5095156;28;20623;-59
2022/06/16 06:36:52;;;;;;;5.83;2.00;;;19.20;59.20;;;22.14;44.54;102023.47;5094425;28;20215;-60
2022/06/16 06:39:19;;;;;;;2.57;1.83;;;19.30;58.60;;;22.17;44.28;102028.41;5109989;28;20196;-62
2022/06/16 06:41:47;;;;;;;3.03;2.30;;;19.40;58.50;;;22.26;43.83;102027.06;5116701;28;20212;-61
2022/06/16 06:44:16;;;;;;;7.60;3.47;;;19.40;58.00;;;22.33;43.38;102021.66;5115091;28;20705;-61
2022/06/16 06:46:43;;;;;;;4.63;2.30;;;19.40;57.80;;;22.37;43.05;102017.50;5112496;28;20199;-61
2022/06/16 06:49:11;;;;;;;4.13;2.47;;;19.50;57.40;;;22.40;42.89;102036.66;5124135;27;20596;-62
2022/06/16 06:51:42;;;;;;;5.40;3.23;;;19.50;57.30;;;22.45;43.28;102039.50;5113953;28;20650;-63
2022/06/16 06:54:09;;;;;;;3.70;2.33;;;19.60;57.00;;;22.52;42.90;102036.75;5114391;28;20215;-61
2022/06/16 06:56:36;;;;;;;4.17;1.80;;;19.60;56.90;;;22.57;42.70;102043.09;5113563;28;20352;-61
2022/06/16 06:59:09;;;;;;;2.23;1.60;;;19.70;56.80;;;22.67;42.66;102051.50;5102531;27;20496;-62
2022/06/16 07:01:38;;;;;;;2.13;1.93;;;19.80;56.70;;;22.78;41.87;102063.34;5093144;28;20210;-62
2022/06/16 07:04:05;;;;;;;2.83;1.67;;;19.80;56.00;;;22.85;41.76;102051.50;5094605;28;20391;-61
2022/06/16 07:06:34;;;;;;;2.70;1.80;;;19.90;55.50;;;22.88;41.07;102052.94;5094539;28;20193;-62
2022/06/16 07:09:01;;;;;;;2.73;1.57;;;20.00;54.60;;;22.84;40.53;102068.66;5104360;28;20192;-62
2022/06/16 07:11:28;;;;;;;1.53;1.43;;;20.10;54.10;;;22.86;40.74;102066.59;5113978;28;20705;-62
2022/06/16 07:13:56;;;;;;;4.33;3.20;;;20.10;53.90;;;22.95;40.25;102079.72;5114258;28;20192;-62
2022/06/16 07:16:24;;;;;;;4.03;3.27;;;20.10;53.20;;;23.06;40.02;102079.00;5113456;28;20215;-62
2022/06/16 07:18:53;;;;;;;3.13;2.20;;;20.20;53.00;;;23.16;39.63;102079.25;5104150;28;20196;-62
2022/06/16 07:21:21;;;;;;;3.73;2.10;;;20.30;52.30;;;23.25;39.10;102075.25;5085025;27;20230;-62
2022/06/16 07:23:48;;;;;;;5.80;1.83;;;20.30;52.10;;;23.34;38.99;102079.28;5084905;28;20223;-63
2022/06/16 07:26:16;;;;;;;3.53;2.07;;;20.40;51.60;;;23.41;38.59;102080.88;5085473;28;20220;-61
2022/06/16 07:28:43;;;;;;;5.70;3.50;;;20.40;51.50;;;23.46;38.19;102077.50;5085839;28;20193;-62
2022/06/16 07:31:11;;;;;;;5.63;3.53;;;20.50;50.80;;;23.52;38.05;102072.03;5084040;27;20284;-61
2022/06/16 07:33:59;;;;;;;4.20;2.50;;;20.50;50.70;;;23.56;37.56;102069.69;5085382;28;20208;-58
2022/06/16 07:36:27;;;;;;;3.67;2.03;;;20.60;50.30;;;23.64;37.67;102080.13;5081932;28;20292;-61
2022/06/16 07:38:54;;;;;;;3.80;2.60;;;20.60;50.50;;;23.77;37.73;102085.31;5082168;28;20228;-63
2022/06/16 07:41:31;;;;;;;2.77;1.80;;;20.80;50.40;;;23.84;37.09;102086.06;5081588;28;20247;-64
2022/06/16 07:44:08;;;;;;;3.43;1.97;;;20.80;49.30;;;23.85;36.82;102097.63;5080592;28;20302;-64
2022/06/16 07:46:37;;;;;;;5.20;2.33;;;20.90;49.20;;;23.87;37.09;102098.22;5078775;28;20196;-64
2022/06/16 07:49:09;;;;;;;3.90;3.40;;;20.90;49.40;;;23.94;37.27;102097.06;5078789;28;20209;-62
2022/06/16 07:51:37;;;;;;;2.40;2.10;;;21.00;49.70;;;23.97;36.65;102091.25;5078863;28;20228;-61
2022/06/16 07:54:14;;;;;;;5.70;3.87;;;21.10;48.80;;;24.05;36.87;102088.22;5079735;28;20201;-62
2022/06/16 07:57:06;;;;;;;4.37;3.23;;;21.30;49.10;;;24.16;36.62;102075.88;5078315;28;20204;-67
2022/06/16 07:59:34;;;;;;;4.63;2.73;;;21.30;48.40;;;24.23;36.12;102080.09;5079671;28;20594;-62
2022/06/16 08:02:02;;;;;;;3.87;2.30;;;21.30;47.90;;;24.25;35.68;102077.16;5078859;28;20238;-63
2022/06/16 08:04:32;;;;;;;4.50;1.80;;;21.30;47.50;;;24.25;36.07;102079.84;5078465;28;20269;-63
2022/06/16 08:07:02;;;;;;;3.47;1.70;;;21.30;47.80;;;24.30;36.37;102084.53;5079258;28;20206;-59
2022/06/16 08:09:35;;;;;;;2.83;1.80;;;21.40;48.40;;;24.37;35.74;102085.25;5079602;28;20200;-61
2022/06/16 08:12:08;;;;;;;5.17;1.43;;;21.40;47.00;;;24.43;35.28;102079.78;5077009;28;20314;-60
2022/06/16 08:14:39;;;;;;;4.77;2.60;;;21.50;46.90;;;24.42;34.73;102082.69;5078477;28;20275;-60
2022/06/16 08:17:10;;;;;;;2.37;1.57;;;21.40;46.00;;;24.53;34.56;102095.34;5078809;28;20291;-62
2022/06/16 08:19:41;;;;;;;1.67;1.30;;;21.50;45.80;;;25.11;34.11;102095.34;5078629;28;20208;-62
2022/06/16 08:22:12;;;;;;;3.67;1.37;;;21.60;46.40;;;26.17;32.44;102087.47;5080094;28;20320;-61
2022/06/16 08:24:41;;;;;;;4.83;1.37;;;21.90;46.20;;;27.29;30.63;102090.75;5079095;28;20310;-62
2022/06/16 08:27:12;;;;;;;2.10;1.20;;;22.30;44.80;;;28.39;29.89;102085.63;5079807;28;20200;-60
2022/06/16 08:29:43;;;;;;;2.77;1.60;;;23.00;44.90;;;29.57;27.57;102086.84;5082584;28;20200;-61
2022/06/16 08:32:16;;;;;;;1.40;1.30;;;23.70;42.10;;;30.52;27.06;102088.84;5076992;28;20232;-64
2022/06/16 08:34:46;;;;;;;3.17;1.27;;;24.40;41.60;;;31.85;25.71;102085.28;5076467;28;20196;-63
2022/06/16 08:37:15;;;;;;;1.37;1.00;;;25.20;41.60;;;32.71;23.95;102080.72;5077989;28;20235;-62
2022/06/16 08:39:43;;;;;;;5.23;1.73;;;26.10;38.30;;;33.58;23.61;102085.94;5076765;28;20266;-62
2022/06/16 08:42:24;;;;;;;5.37;1.50;;;27.00;37.10;;;34.61;22.15;102078.19;5079061;28;20216;-60
2022/06/16 08:45:02;;;;;;;2.43;1.80;;;27.70;34.80;;;35.26;20.87;102078.00;5077814;28;20209;-63
2022/06/16 08:47:39;;;;;;;2.00;1.60;;;28.30;32.70;;;35.71;20.04;102082.44;5077779;28;20247;-62
2022/06/16 08:50:28;;;;;;;3.33;2.10;;;28.70;31.40;;;36.43;19.26;102085.03;5077451;28;20208;-61
2022/06/16 08:53:15;;;;;;;4.57;1.27;;;29.30;30.30;;;36.75;18.70;102087.47;5076495;28;20275;-62
2022/06/16 08:55:58;;;;;;;1.53;1.27;;;29.60;29.20;;;37.11;18.11;102085.31;5077434;28;20196;-62
2022/06/16 08:58:40;;;;;;;3.20;1.90;;;29.90;28.40;;;37.79;18.34;102094.78;5079424;28;20274;-61
2022/06/16 09:01:22;;;;;;;1.40;1.20;;;30.40;28.40;;;38.12;17.26;102098.66;5077222;28;20224;-64
2022/06/16 09:04:00;;;;;;;2.33;1.63;;;30.70;27.30;;;38.29;17.76;102106.09;5076224;27;20225;-63
2022/06/16 09:06:47;;;;;;;2.40;1.60;;;31.00;27.50;;;38.74;17.07;102093.47;5076209;28;20722;-62
2022/06/16 09:12:41;;;;;;;3.15;1.70;;;31.80;26.80;;;39.72;16.22;102076.44;5073702;28;20220;-63
2022/06/16 09:15:23;;;;;;;2.22;1.50;;;32.40;26.10;;;39.68;16.19;102084.56;5076573;28;20203;-61
2022/06/16 09:18:14;;;;;;;2.88;2.55;;;32.80;25.60;;;40.21;15.77;102080.16;5075899;28;20205;-60
2022/06/16 09:20:52;;;;;;;4.97;1.90;;;33.00;24.60;;;40.92;16.20;102083.34;5075610;28;20197;-63
2022/06/16 09:23:48;;;;;;;2.38;1.50;;;33.30;25.50;;;41.62;14.88;102074.44;5076191;28;20238;-62
2022/06/16 09:26:28;;;;;;;2.15;1.70;;;33.80;25.00;;;41.99;14.51;102080.63;5074870;28;20216;-61
2022/06/16 09:29:06;;;;;;;2.75;1.63;;;34.10;24.40;;;41.75;14.69;102084.31;5076593;28;20659;-62
2022/06/16 09:31:41;;;;;;;2.83;2.00;;;34.40;23.70;;;41.89;15.19;102086.66;5076195;28;20695;-59
2022/06/16 09:34:16;;;;;;;9.25;8.32;;;34.70;24.00;;;42.29;14.85;102084.59;5076402;28;20208;-60
2022/06/16 09:36:51;;;;;;;5.05;3.65;;;34.90;23.90;;;42.59;14.06;102089.72;5075944;28;20282;-62
2022/06/16 09:39:26;;;;;;;4.22;3.20;;;35.10;23.30;;;42.92;13.98;102088.19;5077898;28;20218;-59
2022/06/16 09:42:37;;;;;;;3.70;3.40;;;35.30;22.90;;;42.91;13.20;102088.56;5079709;28;20617;-59
2022/06/16 09:45:17;;;;;;;2.03;1.80;;;35.20;22.10;;;42.53;13.58;102097.53;5080714;28;20606;-60
2022/06/16 09:47:53;;;;;;;1.98;1.73;;;35.00;21.90;;;42.00;13.78;102082.25;5079763;28;20206;-61
2022/06/16 09:50:37;;;;;;;3.00;2.80;;;34.80;22.20;;;42.26;13.45;102081.75;5077517;28;20717;-61
2022/06/16 09:53:14;;;;;;;1.80;1.60;;;34.80;22.80;;;42.81;13.78;102081.56;5078992;28;20690;-63
2022/06/16 09:55:51;;;;;;;4.75;1.77;;;35.00;22.90;;;43.55;13.51;102091.56;5080055;28;20542;-62
2022/06/16 09:58:30;;;;;;;1.77;1.48;;;35.30;23.20;;;44.22;13.20;102094.88;5080334;28;20533;-60
2022/06/16 10:01:05;;;;;;;2.50;1.83;;;35.50;22.60;;;44.27;12.71;102095.34;5077242;28;20285;-61
2022/06/16 10:03:40;;;;;;;2.47;2.28;;;35.90;22.30;;;44.71;12.61;102100.44;5078998;28;20202;-62
2022/06/16 10:06:25;;;;;;;1.73;1.40;;;36.20;22.50;;;45.11;11.81;102091.50;5077723;28;20203;-59
2022/06/16 10:09:08;;;;;;;2.85;1.75;;;36.40;21.70;;;45.30;11.92;102094.19;5078215;28;20196;-59
2022/06/16 10:11:53;;;;;;;5.40;5.00;;;36.60;21.20;;;45.57;12.24;102092.94;5077690;28;20334;-61
2022/06/16 10:14:32;;;;;;;6.88;6.38;;;36.80;21.50;;;46.04;12.26;102103.44;5079330;28;20275;-62
2022/06/16 10:17:06;;;;;;;4.28;2.28;;;37.00;21.60;;;46.16;11.46;102095.59;5079345;28;20219;-59
2022/06/16 10:19:39;;;;;;;4.25;3.60;;;37.20;21.10;;;46.27;11.41;102096.47;5077382;28;20728;-62
2022/06/16 10:22:10;;;;;;;3.60;3.15;;;37.40;20.50;;;45.92;11.16;102109.25;5078154;28;20228;-62
2022/06/16 10:24:44;;;;;;;2.13;2.03;;;37.10;19.80;;;45.11;11.20;102108.22;5077522;28;20212;-62
2022/06/16 10:27:17;;;;;;;1.90;1.70;;;36.90;19.80;;;44.63;11.70;102099.53;5078264;28;20215;-59
2022/06/16 10:29:55;;;;;;;2.38;2.17;;;36.70;20.10;;;44.41;12.19;102105.88;5078058;28;20201;-61
2022/06/16 10:32:38;;;;;;;4.10;2.58;;;36.70;20.60;;;44.38;12.21;102103.88;5077504;28;20249;-61
2022/06/16 10:35:13;;;;;;;3.00;1.90;;;36.70;20.80;;;44.25;11.95;102110.78;5078578;28;20306;-62
2022/06/16 10:37:43;;;;;;;4.43;2.50;;;36.60;20.40;;;44.07;11.86;102104.91;5077046;28;20188;-60
2022/06/16 10:40:18;;;;;;;3.85;2.28;;;36.40;20.50;;;43.18;12.28;102112.53;5059064;28;20227;-63
2022/06/16 10:42:53;;;;;;;2.22;1.90;;;36.00;20.20;;;41.86;13.30;102117.84;5078735;28;20219;-60
2022/06/16 10:45:26;;;;;;;3.40;1.73;;;35.50;20.80;;;40.66;14.65;102111.31;5076538;28;20928;-62
2022/06/16 10:48:00;;;;;;;3.75;2.28;;;35.20;21.40;;;39.46;15.48;102104.22;5077683;28;20231;-62
2022/06/16 10:50:34;;;;;;;2.55;2.35;;;34.90;21.80;;;38.24;16.10;102120.00;5077693;28;20607;-62
2022/06/16 10:53:10;;;;;;;3.42;2.70;;;34.40;22.10;;;37.23;17.31;102114.94;5078641;28;20213;-62